Time;durP1;ratioP1;P1;durP2;ratioP2;P2;SDS_P1;SDS_P2;PMS_P1;PMS_P2;Temp;Humidity;BMP_temperature;BMP_pressure;BME280_temperature;BME280_humidity;BME280_pressure;Samples;Min_cycle;Max_cycle;Signal;HPM_P1;HPM_P2
2022/07/24 00:02:22;;;;;;;7.60;3.95;;;;;;;22.78;48.34;101816.34;5060924;28;20537;-71
2022/07/24 00:04:56;;;;;;;5.38;3.92;;;;;;;22.76;48.68;101815.00;5058531;28;20055;-71
2022/07/24 00:07:25;;;;;;;6.00;4.07;;;;;;;22.73;48.44;101814.44;5055102;28;20163;-71
2022/07/24 00:09:53;;;;;;;6.10;3.67;;;;;;;22.73;48.56;101821.84;5058531;28;20087;-70
2022/07/24 00:12:21;;;;;;;7.53;4.32;;;;;;;22.58;48.73;101799.97;5058876;28;20216;-70
2022/07/24 00:14:49;;;;;;;5.80;3.58;;;;;;;22.68;48.79;101819.13;5060818;28;20049;-69
2022/07/24 00:17:18;;;;;;;5.43;3.95;;;;;;;22.67;48.50;101814.75;5061938;28;20049;-71
2022/07/24 00:19:46;;;;;;;7.72;3.95;;;;;;;22.65;48.46;101806.81;5054016;28;20053;-71
2022/07/24 00:22:13;;;;;;;5.85;5.25;;;;;;;22.57;48.79;101799.16;5060031;28;20088;-71
2022/07/24 00:24:41;;;;;;;6.65;4.13;;;;;;;22.61;48.88;101805.72;5059848;28;20479;-71
2022/07/24 00:27:09;;;;;;;5.93;3.92;;;;;;;22.56;48.53;101789.28;5065031;28;20049;-71
2022/07/24 00:29:37;;;;;;;5.20;3.85;;;;;;;22.58;48.77;101805.47;5057739;28;20049;-71
2022/07/24 00:32:05;;;;;;;8.63;4.00;;;;;;;22.57;48.87;101807.38;5060764;28;20049;-72
2022/07/24 00:34:34;;;;;;;7.88;4.10;;;;;;;22.54;49.15;101804.38;5058857;28;20068;-70
2022/07/24 00:37:02;;;;;;;4.88;3.72;;;;;;;22.56;48.77;101804.91;5054887;28;20467;-71
2022/07/24 00:39:29;;;;;;;6.30;4.10;;;;;;;22.53;48.68;101806.31;5058582;28;20044;-70
2022/07/24 00:41:57;;;;;;;5.78;3.92;;;;;;;22.53;48.80;101809.06;5070970;28;20160;-71
2022/07/24 00:44:25;;;;;;;7.20;3.60;;;;;;;22.54;48.84;101804.38;5046426;28;20087;-70
2022/07/24 00:46:53;;;;;;;7.20;4.30;;;;;;;22.53;48.90;101809.06;5059179;28;20087;-70
2022/07/24 00:49:21;;;;;;;5.82;4.07;;;;;;;22.52;48.90;101807.44;5056424;28;20072;-71
2022/07/24 00:51:55;;;;;;;7.13;4.20;;;;;;;22.50;48.73;101812.34;5061282;28;20049;-70
2022/07/24 00:54:23;;;;;;;4.75;3.50;;;;;;;22.51;48.67;101813.19;5061090;28;20053;-69
2022/07/24 00:56:53;;;;;;;6.53;3.90;;;;;;;22.49;48.95;101810.72;5055032;28;20386;-70
2022/07/24 00:59:21;;;;;;;6.75;3.60;;;;;;;22.35;48.99;101790.47;5063428;28;20045;-70
2022/07/24 01:01:51;;;;;;;6.57;4.20;;;;;;;22.47;48.99;101809.34;5058706;28;20519;-71
2022/07/24 01:04:20;;;;;;;4.63;3.70;;;;;;;22.45;49.07;101809.63;5062781;28;20502;-71
2022/07/24 01:06:48;;;;;;;4.47;3.53;;;;;;;22.44;48.80;101807.16;5064291;28;20072;-71
2022/07/24 01:09:18;;;;;;;7.00;3.92;;;;;;;22.43;49.15;101811.00;5066312;28;20056;-71
2022/07/24 01:11:46;;;;;;;5.60;4.10;;;;;;;22.42;48.93;101807.44;5069940;28;20501;-71
2022/07/24 01:14:15;;;;;;;5.47;4.00;;;;;;;22.40;48.92;101802.25;5074448;28;20087;-72
2022/07/24 01:16:43;;;;;;;4.78;3.60;;;;;;;22.39;48.99;101794.31;5062429;28;20072;-70
2022/07/24 01:19:13;;;;;;;7.20;3.97;;;;;;;22.39;49.09;101797.03;5060337;28;20049;-71
2022/07/24 01:21:46;;;;;;;6.53;3.75;;;;;;;22.36;49.07;101792.13;5060296;28;20507;-70
2022/07/24 01:24:14;;;;;;;5.63;3.95;;;;;;;22.33;49.06;101788.03;5065591;28;20095;-71
2022/07/24 01:26:42;;;;;;;5.15;3.97;;;;;;;22.32;49.21;101785.56;5063972;28;20045;-70
2022/07/24 01:29:09;;;;;;;5.45;3.47;;;;;;;22.32;49.25;101791.84;5064853;28;20056;-71
2022/07/24 01:31:37;;;;;;;5.95;3.40;;;;;;;22.27;49.13;101782.84;5064882;28;20052;-70
2022/07/24 01:34:05;;;;;;;5.20;3.33;;;;;;;22.29;49.39;101789.69;5066067;28;20049;-69
2022/07/24 01:36:33;;;;;;;7.43;3.88;;;;;;;22.19;49.62;101773.25;5053023;28;20056;-70
2022/07/24 01:39:03;;;;;;;5.30;3.70;;;;;;;22.15;49.40;101779.56;5066820;28;20049;-71
2022/07/24 01:41:32;;;;;;;6.20;3.90;;;;;;;22.25;49.74;101795.97;5063479;28;20109;-71
2022/07/24 01:44:00;;;;;;;6.25;3.70;;;;;;;22.24;49.52;101797.06;5046471;28;20046;-70
2022/07/24 01:46:28;;;;;;;5.88;3.67;;;;;;;22.16;49.78;101782.03;5061408;28;20045;-71
2022/07/24 01:48:56;;;;;;;7.20;4.00;;;;;;;22.22;49.53;101788.31;5055020;28;20517;-70
2022/07/24 01:51:24;;;;;;;5.78;4.28;;;;;;;22.20;49.72;101787.78;5058501;28;20064;-70
2022/07/24 01:53:51;;;;;;;7.03;3.85;;;;;;;22.17;49.51;101785.59;5067051;28;20041;-70
2022/07/24 01:56:20;;;;;;;5.05;4.00;;;;;;;22.17;49.67;101793.81;5058362;28;20072;-69
2022/07/24 01:58:49;;;;;;;5.10;3.65;;;;;;;22.15;49.79;101785.88;5062893;28;20041;-69
2022/07/24 02:01:17;;;;;;;5.45;3.60;;;;;;;22.14;49.66;101786.16;5047634;28;20081;-70
2022/07/24 02:03:45;;;;;;;5.88;3.63;;;;;;;22.13;49.79;101784.50;5054810;28;20591;-70
2022/07/24 02:06:12;;;;;;;4.43;3.58;;;;;;;22.10;49.90;101782.31;5059453;28;20042;-71
2022/07/24 02:08:40;;;;;;;5.30;4.05;;;;;;;22.07;49.74;101778.22;5058066;28;20418;-71
2022/07/24 02:11:08;;;;;;;5.82;4.05;;;;;;;22.06;49.92;101782.88;5065052;28;20049;-71
2022/07/24 02:13:38;;;;;;;6.70;3.65;;;;;;;22.04;49.95;101778.78;5063322;28;20056;-71
2022/07/24 02:16:06;;;;;;;5.55;3.67;;;;;;;22.02;50.05;101773.56;5062127;28;20102;-71
2022/07/24 02:18:34;;;;;;;7.10;3.88;;;;;;;22.01;49.98;101777.38;5062961;28;20525;-71
2022/07/24 02:21:03;;;;;;;5.20;3.85;;;;;;;21.87;50.03;101753.56;5064121;28;20093;-71
2022/07/24 02:23:30;;;;;;;7.55;3.97;;;;;;;21.97;50.13;101780.94;5064514;28;20044;-71
2022/07/24 02:25:58;;;;;;;5.63;3.67;;;;;;;21.95;50.25;101767.53;5064365;28;20045;-71
2022/07/24 02:28:26;;;;;;;5.07;4.00;;;;;;;21.95;50.19;101766.69;5064888;28;20052;-71
2022/07/24 02:30:55;;;;;;;5.03;3.90;;;;;;;21.93;50.30;101764.25;5056420;28;20049;-71
2022/07/24 02:33:23;;;;;;;6.35;5.05;;;;;;;21.92;50.22;101764.50;5060976;28;20081;-71
2022/07/24 02:35:51;;;;;;;6.43;4.03;;;;;;;21.89;50.09;101768.63;5071067;28;20122;-71
2022/07/24 02:38:18;;;;;;;6.50;4.28;;;;;;;21.88;50.26;101766.16;5063367;28;20489;-71
2022/07/24 02:40:46;;;;;;;6.72;3.70;;;;;;;21.87;50.20;101770.00;5053975;28;20053;-71
2022/07/24 02:43:14;;;;;;;5.00;3.88;;;;;;;21.85;50.31;101770.28;5058057;28;20071;-71
2022/07/24 02:45:43;;;;;;;6.45;4.13;;;;;;;21.82;50.46;101778.22;5059041;28;20057;-71
2022/07/24 02:48:18;;;;;;;8.98;5.00;;;;;;;21.81;50.46;101779.31;5065861;28;20098;-71
2022/07/24 02:50:46;;;;;;;5.40;4.35;;;;;;;21.80;50.37;101791.34;5061296;28;20051;-70
2022/07/24 02:53:14;;;;;;;6.55;4.50;;;;;;;21.77;50.48;101796.28;5056670;28;20091;-70
2022/07/24 02:55:42;;;;;;;5.15;3.70;;;;;;;21.75;50.48;101801.19;5057313;28;20072;-70
2022/07/24 02:58:10;;;;;;;5.70;4.15;;;;;;;21.75;50.51;101792.97;5063649;28;20041;-70
2022/07/24 03:00:37;;;;;;;6.93;4.07;;;;;;;21.72;50.79;101801.75;5062425;28;20081;-70
2022/07/24 03:03:05;;;;;;;8.13;4.30;;;;;;;21.72;50.63;101796.28;5058605;28;20061;-71
2022/07/24 03:05:34;;;;;;;4.97;4.18;;;;;;;21.70;50.64;101789.44;5049353;28;20052;-70
2022/07/24 03:08:02;;;;;;;5.72;4.10;;;;;;;21.70;50.85;101792.97;5059873;28;20045;-70
2022/07/24 03:10:30;;;;;;;7.35;4.97;;;;;;;21.69;50.91;101788.59;5063491;28;20053;-70
2022/07/24 03:12:58;;;;;;;5.50;4.32;;;;;;;21.69;50.84;101785.06;5062638;28;20056;-70
2022/07/24 03:15:26;;;;;;;5.45;4.15;;;;;;;21.68;50.53;101783.41;5062154;28;20071;-70
2022/07/24 03:17:55;;;;;;;6.75;3.80;;;;;;;21.62;50.76;101771.63;5057679;28;20045;-71
2022/07/24 03:20:26;;;;;;;8.07;4.78;;;;;;;21.65;50.72;101786.69;5065534;28;20056;-70
2022/07/24 03:22:56;;;;;;;5.57;4.30;;;;;;;21.63;50.86;101781.50;5057665;28;20084;-71
2022/07/24 03:25:24;;;;;;;6.07;4.25;;;;;;;21.62;50.70;101774.38;5056492;28;20045;-70
2022/07/24 03:27:52;;;;;;;6.47;4.43;;;;;;;21.62;50.81;101774.38;5056570;28;20073;-71
2022/07/24 03:30:20;;;;;;;5.30;4.38;;;;;;;21.58;50.77;101767.81;5060466;28;20044;-71
2022/07/24 03:32:48;;;;;;;6.13;4.88;;;;;;;21.61;51.17;101777.38;5055528;28;20095;-70
2022/07/24 03:35:16;;;;;;;5.93;4.40;;;;;;;21.59;50.94;101774.91;5067366;28;20064;-70
2022/07/24 03:37:44;;;;;;;6.38;4.65;;;;;;;21.56;50.96;101775.47;5061954;28;20049;-71
2022/07/24 03:40:13;;;;;;;6.30;4.65;;;;;;;21.57;51.14;101792.69;5064629;28;20088;-70
2022/07/24 03:42:41;;;;;;;7.13;4.65;;;;;;;21.56;51.02;101789.16;5066546;28;20045;-70
2022/07/24 03:45:10;;;;;;;8.52;4.57;;;;;;;21.54;51.00;101782.31;5060250;28;20049;-70
2022/07/24 03:47:37;;;;;;;6.10;4.63;;;;;;;21.54;51.14;101785.03;5060233;28;20041;-70
2022/07/24 03:50:06;;;;;;;7.78;4.65;;;;;;;21.52;51.13;101784.50;5048373;28;20053;-71
2022/07/24 03:52:33;;;;;;;7.18;4.95;;;;;;;21.50;51.15;101776.56;5061631;28;20059;-71
2022/07/24 03:55:04;;;;;;;5.90;4.35;;;;;;;21.50;51.04;101770.25;5057293;28;20052;-70
2022/07/24 03:57:33;;;;;;;6.28;4.63;;;;;;;21.49;51.23;101769.44;5054667;28;20064;-70
2022/07/24 04:00:01;;;;;;;6.15;4.85;;;;;;;21.47;51.10;101779.00;5062984;28;20057;-70
2022/07/24 04:02:29;;;;;;;7.38;4.63;;;;;;;21.46;51.34;101778.19;5056507;28;20065;-71
2022/07/24 04:04:57;;;;;;;5.65;4.13;;;;;;;21.43;51.30;101771.34;5067678;28;20052;-68
2022/07/24 04:07:24;;;;;;;6.80;5.00;;;;;;;21.41;51.49;101773.53;5056715;28;20052;-70
2022/07/24 04:09:52;;;;;;;6.63;4.90;;;;;;;21.40;51.29;101771.91;5063439;28;20056;-71
2022/07/24 04:12:20;;;;;;;5.85;4.82;;;;;;;21.38;51.75;101774.09;5064587;28;20112;-70
2022/07/24 04:14:49;;;;;;;6.30;4.80;;;;;;;21.37;51.53;101777.91;5061037;28;20124;-71
2022/07/24 04:17:17;;;;;;;6.15;4.65;;;;;;;21.35;51.71;101774.63;5059987;28;20044;-71
2022/07/24 04:19:44;;;;;;;5.88;4.47;;;;;;;21.35;51.56;101771.06;5052347;28;20072;-71
2022/07/24 04:22:12;;;;;;;12.80;5.82;;;;;;;21.32;51.72;101769.69;5058558;28;20061;-70
2022/07/24 04:24:40;;;;;;;7.13;4.80;;;;;;;21.24;51.84;101755.75;5068893;28;20068;-71
2022/07/24 04:27:08;;;;;;;7.18;5.80;;;;;;;21.29;51.74;101769.41;5057860;28;20037;-72
2022/07/24 04:29:36;;;;;;;6.38;4.85;;;;;;;21.27;51.71;101775.16;5066735;28;20553;-70
2022/07/24 04:32:05;;;;;;;7.63;5.30;;;;;;;21.26;51.93;101770.78;5060962;28;20075;-70
2022/07/24 04:34:33;;;;;;;5.85;4.75;;;;;;;21.25;51.81;101779.25;5073879;28;20061;-71
2022/07/24 04:37:01;;;;;;;6.38;4.82;;;;;;;21.23;51.90;101778.69;5064750;28;20056;-70
2022/07/24 04:39:29;;;;;;;6.88;4.88;;;;;;;21.22;51.82;101791.56;5060978;28;20045;-71
2022/07/24 04:41:56;;;;;;;7.45;5.10;;;;;;;21.21;51.90;101795.34;5053622;28;20107;-71
2022/07/24 04:44:24;;;;;;;7.90;4.80;;;;;;;21.20;52.02;101792.88;5062355;28;20041;-72
2022/07/24 04:46:52;;;;;;;6.72;5.63;;;;;;;21.18;51.96;101798.63;5054734;28;20049;-70
2022/07/24 04:49:21;;;;;;;7.95;5.50;;;;;;;21.17;52.13;101785.22;5046394;28;20060;-68
2022/07/24 04:51:49;;;;;;;8.38;5.10;;;;;;;21.17;52.04;101790.69;5059587;28;20049;-70
2022/07/24 04:54:17;;;;;;;7.13;5.72;;;;;;;21.16;52.07;101787.13;5065370;28;20103;-71
2022/07/24 04:56:44;;;;;;;6.85;5.63;;;;;;;21.15;52.05;101792.88;4708150;28;9999645;-71
2022/07/24 04:59:12;;;;;;;7.10;5.57;;;;;;;21.14;52.14;101789.31;5049621;28;20054;-71
2022/07/24 05:01:40;;;;;;;8.93;5.60;;;;;;;21.14;52.14;101792.03;5057350;28;20128;-70
2022/07/24 05:04:08;;;;;;;7.07;5.85;;;;;;;21.12;52.18;101789.59;5054780;28;20084;-70
2022/07/24 05:06:37;;;;;;;6.82;5.93;;;;;;;21.10;52.29;101783.56;5065851;28;20052;-70
2022/07/24 05:09:05;;;;;;;7.30;5.93;;;;;;;21.09;52.30;101789.31;5069689;28;20079;-70
2022/07/24 05:11:34;;;;;;;11.68;5.93;;;;;;;21.10;52.35;101788.22;5048861;28;20051;-69
2022/07/24 05:14:01;;;;;;;9.07;6.20;;;;;;;21.10;52.49;101783.56;5054586;28;20127;-69
2022/07/24 05:16:29;;;;;;;6.90;6.15;;;;;;;21.11;52.31;101787.13;5051367;28;20498;-70
2022/07/24 05:18:57;;;;;;;8.70;6.93;;;;;;;21.08;52.35;101774.81;5051070;28;20060;-70
2022/07/24 05:21:25;;;;;;;9.18;6.55;;;;;;;21.13;52.45;101782.19;5050928;28;20049;-70
2022/07/24 05:23:56;;;;;;;11.13;7.03;;;;;;;21.15;52.47;101787.41;5059302;28;20053;-73
2022/07/24 05:26:23;;;;;;;13.15;7.30;;;;;;;21.16;52.40;101789.88;5064420;28;20059;-72
2022/07/24 05:28:51;;;;;;;10.05;7.38;;;;;;;21.18;52.31;101792.34;5058031;28;20045;-71
2022/07/24 05:31:19;;;;;;;9.70;6.95;;;;;;;21.19;52.56;101800.25;5056598;28;20547;-70
2022/07/24 05:33:47;;;;;;;10.13;7.20;;;;;;;21.22;52.38;101801.66;5057581;28;20053;-71
2022/07/24 05:36:15;;;;;;;8.55;6.80;;;;;;;21.25;52.42;101806.59;5058805;28;20044;-71
2022/07/24 05:38:43;;;;;;;8.48;7.05;;;;;;;21.27;52.47;101804.41;5061899;28;20049;-68
2022/07/24 05:41:13;;;;;;;8.60;6.32;;;;;;;21.30;52.40;101799.22;5062551;28;20053;-74
2022/07/24 05:43:41;;;;;;;7.65;6.45;;;;;;;21.28;52.17;101793.22;5057675;28;20462;-76
2022/07/24 05:46:08;;;;;;;9.13;6.90;;;;;;;21.34;52.23;101797.59;5066825;28;20545;-67
2022/07/24 05:48:44;;;;;;;9.73;6.35;;;;;;;21.36;52.14;101798.16;5064892;28;20049;-72
2022/07/24 05:51:12;;;;;;;9.52;7.15;;;;;;;21.38;52.34;101795.13;5061778;28;20048;-69
2022/07/24 05:53:40;;;;;;;11.85;6.70;;;;;;;21.40;52.37;101799.25;5053153;28;20081;-72
2022/07/24 05:56:08;;;;;;;8.63;6.90;;;;;;;21.42;52.39;101802.53;5048242;28;20057;-72
2022/07/24 05:58:37;;;;;;;9.15;6.60;;;;;;;21.42;52.45;101799.78;5048863;28;20064;-67
2022/07/24 06:01:05;;;;;;;11.23;7.38;;;;;;;21.43;52.36;101806.91;5063048;28;20075;-74
2022/07/24 06:03:33;;;;;;;11.50;7.35;;;;;;;21.44;52.33;101803.09;5055654;28;20092;-73
2022/07/24 06:06:00;;;;;;;9.05;6.50;;;;;;;21.46;52.37;101810.19;5053274;28;20076;-72
2022/07/24 06:08:28;;;;;;;8.60;6.45;;;;;;;21.46;52.42;101808.28;5060170;28;20052;-71
2022/07/24 06:10:56;;;;;;;8.68;6.45;;;;;;;21.46;52.46;101805.53;5070195;28;20044;-70
2022/07/24 06:13:24;;;;;;;10.90;6.82;;;;;;;21.47;52.53;101811.84;5058506;28;20052;-67
2022/07/24 06:15:54;;;;;;;9.38;6.88;;;;;;;21.49;52.91;101812.38;5058850;28;20371;-71
2022/07/24 06:18:22;;;;;;;10.52;7.72;;;;;;;21.49;53.38;101812.38;5071968;28;20083;-67
2022/07/24 06:20:49;;;;;;;12.20;7.78;;;;;;;21.47;53.14;101806.38;5056618;28;20519;-69
2022/07/24 06:23:17;;;;;;;11.05;6.63;;;;;;;21.51;53.14;101818.41;5055703;28;20140;-67
2022/07/24 06:25:49;;;;;;;10.40;6.72;;;;;;;21.53;53.08;101814.31;5054697;28;20103;-67
2022/07/24 06:28:16;;;;;;;11.57;6.93;;;;;;;21.55;53.11;101812.13;5050542;28;20067;-67
2022/07/24 06:30:44;;;;;;;10.23;6.97;;;;;;;21.57;53.05;101817.31;5049104;28;20060;-67
2022/07/24 06:33:14;;;;;;;7.53;5.72;;;;;;;21.57;52.79;101815.41;5049819;28;20049;-68
2022/07/24 06:35:42;;;;;;;12.40;6.20;;;;;;;21.60;52.87;101814.88;5050852;28;20087;-67
2022/07/24 06:38:10;;;;;;;13.07;6.25;;;;;;;21.62;52.87;101809.94;5049646;28;20053;-68
2022/07/24 06:40:38;;;;;;;7.68;6.03;;;;;;;21.64;52.79;101809.66;5051341;28;20045;-68
2022/07/24 06:43:06;;;;;;;11.73;6.30;;;;;;;21.66;52.84;101810.22;5059172;28;20053;-68
2022/07/24 06:45:36;;;;;;;6.70;5.10;;;;;;;21.67;52.92;101809.13;5058305;28;20041;-67
2022/07/24 06:48:04;;;;;;;11.68;5.72;;;;;;;21.72;52.69;101815.41;5052762;28;20478;-67
2022/07/24 06:50:33;;;;;;;8.98;5.20;;;;;;;21.68;52.69;101805.28;5053164;28;20041;-69
2022/07/24 06:53:01;;;;;;;9.88;6.25;;;;;;;21.76;52.71;101816.53;5052442;28;20411;-69
2022/07/24 06:55:29;;;;;;;7.38;6.30;;;;;;;21.74;52.65;101807.75;5049335;28;20091;-67
2022/07/24 06:57:56;;;;;;;8.40;5.88;;;;;;;21.79;52.60;101806.94;5049325;28;20053;-66
2022/07/24 07:00:24;;;;;;;6.95;6.03;;;;;;;21.79;52.68;101804.19;5050390;28;20057;-67
2022/07/24 07:02:53;;;;;;;11.00;5.60;;;;;;;21.86;54.02;101801.19;5045645;28;20315;-67
2022/07/24 07:05:20;;;;;;;6.05;5.40;;;;;;;21.86;53.18;101810.22;5048027;28;20048;-67
2022/07/24 07:07:49;;;;;;;8.38;5.45;;;;;;;21.94;53.48;101808.84;5051171;28;20067;-67
2022/07/24 07:10:17;;;;;;;8.65;5.75;;;;;;;21.92;52.81;101797.38;5049003;28;20119;-67
2022/07/24 07:12:45;;;;;;;7.32;5.57;;;;;;;21.93;53.00;101796.25;5057902;28;20116;-68
2022/07/24 07:15:13;;;;;;;7.07;4.85;;;;;;;21.95;52.96;101797.63;5054049;28;20052;-68
2022/07/24 07:17:42;;;;;;;8.48;5.18;;;;;;;22.00;53.52;101796.81;5063247;28;20045;-67
2022/07/24 07:20:11;;;;;;;7.20;4.90;;;;;;;22.01;53.29;101792.97;5063241;28;20061;-68
2022/07/24 07:22:39;;;;;;;7.47;5.05;;;;;;;22.06;52.80;101801.22;5053256;28;20548;-68
2022/07/24 07:25:10;;;;;;;5.75;4.40;;;;;;;22.03;52.95;101802.59;5060635;28;20045;-68
2022/07/24 07:27:39;;;;;;;7.28;4.97;;;;;;;22.08;52.79;101802.56;5056263;28;20049;-68
2022/07/24 07:30:09;;;;;;;7.03;4.85;;;;;;;22.09;52.47;101806.13;5057104;28;20064;-69
2022/07/24 07:32:36;;;;;;;6.07;4.70;;;;;;;22.11;52.47;101809.41;5054182;28;20112;-69
2022/07/24 07:35:05;;;;;;;6.82;4.90;;;;;;;22.13;52.63;101811.88;5059923;28;20041;-68
2022/07/24 07:37:48;;;;;;;8.18;5.18;;;;;;;22.14;52.83;101803.41;5053664;28;20075;-67
2022/07/24 07:40:18;;;;;;;7.20;5.07;;;;;;;22.14;52.57;101806.13;5060305;28;20066;-69
2022/07/24 07:42:45;;;;;;;6.05;4.90;;;;;;;22.15;52.54;101806.94;5054242;28;20053;-69
2022/07/24 07:45:13;;;;;;;6.18;4.63;;;;;;;22.18;52.50;101806.41;5064073;28;20063;-68
2022/07/24 07:47:41;;;;;;;6.03;4.03;;;;;;;22.16;53.23;101801.19;5057206;28;20040;-68
2022/07/24 07:50:10;;;;;;;7.53;4.07;;;;;;;22.24;53.92;101802.56;5062305;28;20072;-68
2022/07/24 07:52:38;;;;;;;7.72;4.30;;;;;;;22.23;52.72;101807.22;5060811;28;20044;-68
2022/07/24 07:55:07;;;;;;;4.88;3.72;;;;;;;22.26;52.50;101811.31;5055586;28;20049;-68
2022/07/24 07:57:36;;;;;;;4.28;3.47;;;;;;;22.25;52.55;101806.94;5058740;28;20052;-68
2022/07/24 08:00:23;;;;;;;7.07;3.88;;;;;;;22.25;52.74;101804.19;5061535;28;20132;-67
2022/07/24 08:02:51;;;;;;;5.28;3.60;;;;;;;22.26;53.07;101808.56;5059101;28;20124;-67
2022/07/24 08:05:19;;;;;;;5.82;4.05;;;;;;;22.28;52.88;101799.00;5053894;28;20059;-67
2022/07/24 08:07:47;;;;;;;4.95;3.40;;;;;;;22.27;53.46;101800.09;5062368;28;20072;-69
2022/07/24 08:10:15;;;;;;;6.60;3.45;;;;;;;22.31;53.93;101794.88;5052639;28;20076;-68
2022/07/24 08:12:45;;;;;;;6.15;3.53;;;;;;;22.32;53.52;101802.00;5058122;28;20056;-69
2022/07/24 08:15:12;;;;;;;5.88;3.63;;;;;;;22.31;53.05;101795.69;4708126;28;10001028;-70
2022/07/24 08:17:40;;;;;;;4.45;3.20;;;;;;;22.31;53.64;101789.41;5060860;28;20064;-69
2022/07/24 08:20:09;;;;;;;5.63;3.75;;;;;;;22.28;52.95;101798.16;5055411;28;20099;-70
2022/07/24 08:22:37;;;;;;;6.68;3.10;;;;;;;22.26;53.33;101794.88;5061405;28;20048;-69
2022/07/24 08:25:05;;;;;;;4.25;3.38;;;;;;;22.29;52.99;101797.88;5052665;28;20072;-68
2022/07/24 08:27:36;;;;;;;5.32;3.53;;;;;;;22.35;53.50;101798.69;5060800;28;20339;-68
2022/07/24 08:30:08;;;;;;;4.10;3.15;;;;;;;22.39;53.35;101794.31;5068922;28;20060;-69
2022/07/24 08:32:37;;;;;;;5.20;3.67;;;;;;;22.45;52.96;101790.47;5055749;28;20142;-69
2022/07/24 08:35:06;;;;;;;3.83;2.40;;;;;;;22.48;53.46;101797.28;5058829;28;20049;-68
2022/07/24 08:37:36;;;;;;;5.05;3.60;;;;;;;22.48;52.98;101778.94;5060856;28;20076;-70
2022/07/24 08:40:06;;;;;;;4.15;3.03;;;;;;;22.52;52.99;101785.50;5046471;28;20083;-68
2022/07/24 08:42:35;;;;;;;4.63;3.00;;;;;;;22.55;52.93;101789.56;5055406;28;20356;-70
2022/07/24 08:45:04;;;;;;;4.38;2.83;;;;;;;22.51;53.10;101783.88;5050665;28;20051;-69
2022/07/24 08:47:33;;;;;;;4.68;3.17;;;;;;;22.52;53.00;101790.16;5050078;28;20106;-69
2022/07/24 08:50:02;;;;;;;3.05;2.72;;;;;;;22.48;53.24;101789.09;5057964;28;20128;-68
2022/07/24 08:52:30;;;;;;;5.15;3.33;;;;;;;22.53;53.22;101791.81;5059068;28;20067;-69
2022/07/24 08:54:58;;;;;;;4.05;3.22;;;;;;;22.64;52.81;101791.47;5059712;28;20600;-68
2022/07/24 08:57:26;;;;;;;3.90;2.67;;;;;;;22.64;52.45;101782.41;5057681;28;20083;-69
2022/07/24 08:59:54;;;;;;;4.20;2.67;;;;;;;22.57;52.49;101779.97;5054785;28;20060;-68
2022/07/24 09:02:21;;;;;;;4.88;3.25;;;;;;;22.51;51.92;101775.66;5060452;28;20386;-69
2022/07/24 09:04:58;;;;;;;4.82;3.10;;;;;;;22.52;52.10;101776.47;5064049;28;20076;-70
2022/07/24 09:07:28;;;;;;;4.25;2.67;;;;;;;22.50;51.67;101781.41;5049442;28;20164;-71
2022/07/24 09:10:01;;;;;;;4.28;2.85;;;;;;;22.49;51.71;101769.63;5050439;28;20049;-68
2022/07/24 09:12:33;;;;;;;6.30;3.28;;;;;;;22.49;51.74;101782.50;5062686;28;20041;-69
2022/07/24 09:15:02;;;;;;;3.45;2.50;;;;;;;22.51;51.65;101783.88;5065358;28;20053;-68
2022/07/24 09:17:29;;;;;;;7.22;2.38;;;;;;;22.51;51.28;101778.38;5061410;28;20459;-67
2022/07/24 09:20:01;;;;;;;3.28;2.25;;;;;;;22.50;51.21;101773.19;5064348;28;20053;-69
2022/07/24 09:22:37;;;;;;;5.32;2.63;;;;;;;22.55;51.29;101782.19;5065808;28;20073;-68
2022/07/24 09:25:11;;;;;;;4.72;2.50;;;;;;;22.57;51.37;101773.69;5064161;28;20048;-68
2022/07/24 09:27:41;;;;;;;3.72;2.65;;;;;;;22.58;50.85;101769.84;5060978;28;20048;-69
2022/07/24 09:30:10;;;;;;;5.20;2.88;;;;;;;22.59;50.81;101769.56;5059833;28;20033;-67
2022/07/24 09:32:41;;;;;;;4.07;2.80;;;;;;;22.61;50.96;101755.56;5061325;28;20095;-68
2022/07/24 09:35:14;;;;;;;4.35;2.38;;;;;;;22.65;50.75;101762.97;5056810;28;20418;-68
2022/07/24 09:37:54;;;;;;;3.88;2.60;;;;;;;22.67;50.86;101749.78;4483855;28;10001448;-69
2022/07/24 09:40:22;;;;;;;4.78;2.60;;;;;;;22.71;51.12;101744.56;5090551;28;20832;-68
2022/07/24 09:42:50;;;;;;;3.70;2.20;;;;;;;22.77;50.98;101750.84;5092473;28;20075;-68
2022/07/24 09:45:18;;;;;;;3.05;2.35;;;;;;;22.81;51.38;101750.03;5096517;28;20170;-68
2022/07/24 09:47:53;;;;;;;3.97;2.67;;;;;;;22.84;50.99;101745.91;5097852;28;20472;-68
2022/07/24 09:50:30;;;;;;;3.97;2.47;;;;;;;22.87;51.05;101746.16;5091426;28;20058;-68
2022/07/24 09:52:58;;;;;;;3.38;2.58;;;;;;;22.92;51.31;101743.41;5092223;28;20083;-67
2022/07/24 09:55:26;;;;;;;4.90;2.17;;;;;;;22.98;51.37;101741.44;5091333;28;20045;-65
2022/07/24 09:57:55;;;;;;;3.28;2.35;;;;;;;23.03;51.32;101738.69;5093036;28;20041;-68
2022/07/24 10:00:23;;;;;;;3.75;2.50;;;;;;;23.09;51.20;101736.72;5087415;28;20056;-68
2022/07/24 10:02:55;;;;;;;5.75;2.70;;;;;;;23.13;51.17;101732.31;5094092;28;20067;-68
2022/07/24 10:05:29;;;;;;;3.67;2.78;;;;;;;23.15;51.48;101722.69;5095592;28;20437;-68
2022/07/24 10:07:59;;;;;;;3.58;2.40;;;;;;;23.19;51.24;101729.25;5102330;28;20175;-68
2022/07/24 10:10:29;;;;;;;4.38;2.80;;;;;;;23.21;51.39;101721.56;5082991;28;20053;-66
2022/07/24 10:12:57;;;;;;;3.17;2.30;;;;;;;23.24;51.29;101715.50;5082275;28;20068;-68
2022/07/24 10:15:34;;;;;;;3.05;2.42;;;;;;;23.29;51.12;101720.13;5103172;28;20044;-69
2022/07/24 10:18:18;;;;;;;4.40;2.70;;;;;;;23.33;51.04;101719.25;5098823;28;20079;-69
2022/07/24 10:20:48;;;;;;;3.22;2.42;;;;;;;23.38;51.59;101727.47;5101036;28;20062;-69
2022/07/24 10:23:28;;;;;;;4.70;2.75;;;;;;;23.33;51.19;101697.31;5090481;28;20051;-68
2022/07/24 10:26:03;;;;;;;3.83;2.67;;;;;;;23.50;51.44;101718.03;5101772;28;20071;-68
2022/07/24 10:28:41;;;;;;;3.17;2.70;;;;;;;23.52;51.03;101713.06;5088909;28;20070;-69
2022/07/24 10:31:10;;;;;;;3.95;2.63;;;;;;;23.57;51.48;101713.06;5102914;28;20048;-70
2022/07/24 10:33:40;;;;;;;2.70;2.40;;;;;;;23.59;51.12;101714.41;5085225;28;20048;-70
2022/07/24 10:36:16;;;;;;;4.25;2.47;;;;;;;23.57;51.36;101702.09;5104261;28;20043;-70
2022/07/24 10:38:55;;;;;;;3.40;2.67;;;;;;;23.66;51.37;101706.66;5093263;28;20090;-69
2022/07/24 10:41:26;;;;;;;3.70;2.35;;;;;;;23.69;51.35;101700.59;5087934;28;20086;-66
2022/07/24 10:44:13;;;;;;;4.03;2.55;;;;;;;23.75;51.09;101701.38;5091212;28;20063;-68
2022/07/24 10:46:58;;;;;;;3.17;2.20;;;;;;;23.80;51.12;101690.34;5094947;28;20052;-66
2022/07/24 10:49:46;;;;;;;3.50;2.28;;;;;;;23.86;50.61;101691.94;5097200;28;20082;-67
2022/07/24 10:52:27;;;;;;;4.32;2.20;;;;;;;23.90;50.67;101678.44;5087375;28;20056;-70
2022/07/24 10:55:29;;;;;;;4.82;2.80;;;;;;;24.03;50.80;101683.22;5091650;28;20048;-66
2022/07/24 10:58:12;;;;;;;3.10;2.40;;;;;;;24.09;50.81;101678.50;5096338;28;20083;-64
2022/07/24 11:00:44;;;;;;;3.20;2.20;;;;;;;24.13;50.53;101685.03;5107982;28;20107;-67
2022/07/24 11:03:20;;;;;;;5.13;2.40;;;;;;;24.16;50.74;101677.03;5090655;28;20444;-68
2022/07/24 11:06:04;;;;;;;3.45;2.30;;;;;;;24.21;50.88;101681.66;5087995;28;20125;-68
2022/07/24 11:08:37;;;;;;;3.80;2.28;;;;;;;24.17;51.05;101658.63;5093328;28;20047;-68
2022/07/24 11:11:10;;;;;;;3.13;2.50;;;;;;;24.33;50.59;101671.06;5098737;28;20052;-68
2022/07/24 11:13:49;;;;;;;2.88;2.40;;;;;;;24.39;50.81;101678.13;5099835;28;20075;-67
2022/07/24 11:16:24;;;;;;;3.33;2.47;;;;;;;24.47;50.65;101673.91;5103934;28;20420;-68
2022/07/24 11:19:28;;;;;;;4.07;2.10;;;;;;;24.51;50.45;101669.47;5096518;28;20450;-70
2022/07/24 11:22:10;;;;;;;5.07;2.40;;;;;;;24.57;50.36;101677.34;5088143;28;20048;-66
2022/07/24 11:24:57;;;;;;;5.05;2.22;;;;;;;24.65;50.32;101673.94;4744114;28;10000544;-67
2022/07/24 11:27:25;;;;;;;3.30;2.22;;;;;;;24.70;50.05;101673.03;5091989;28;20079;-66
2022/07/24 11:29:55;;;;;;;3.22;2.42;;;;;;;24.67;49.63;101671.69;5090304;28;20059;-67
2022/07/24 11:32:22;;;;;;;3.50;2.17;;;;;;;24.71;49.90;101674.69;5090053;28;20051;-67
2022/07/24 11:35:01;;;;;;;3.53;2.47;;;;;;;24.73;50.09;101666.94;5095734;28;20052;-68
2022/07/24 11:37:35;;;;;;;3.90;2.58;;;;;;;24.70;49.41;101659.28;5098577;28;20140;-70